createdAt,value
2022-12-19T00:01:38.527Z,41.13
2022-12-19T00:04:09.113Z,40.15
2022-12-19T00:06:37.505Z,40.35
2022-12-19T00:09:04.785Z,40.78
2022-12-19T00:11:32.371Z,40.50
2022-12-19T00:13:59.882Z,39.38
2022-12-19T00:16:29.020Z,39.75
2022-12-19T00:18:58.186Z,40.65
2022-12-19T00:21:28.018Z,41.42
2022-12-19T00:23:55.222Z,39.65
2022-12-19T00:26:23.716Z,40.33
2022-12-19T00:28:54.493Z,39.10
2022-12-19T00:31:22.793Z,39.60
2022-12-19T00:33:49.985Z,38.35
2022-12-19T00:36:23.166Z,39.33
2022-12-19T00:38:51.433Z,40.50
2022-12-19T00:41:34.629Z,40.30
2022-12-19T00:44:04.009Z,39.80
2022-12-19T00:46:32.961Z,39.83
2022-12-19T00:49:00.086Z,40.83
2022-12-19T00:51:29.545Z,39.28
2022-12-19T00:53:58.016Z,41.60
2022-12-19T00:56:37.079Z,38.20
2022-12-19T00:59:06.731Z,38.72
2022-12-19T01:01:36.165Z,38.83
2022-12-19T01:04:27.642Z,39.67
2022-12-19T01:06:51.344Z,41.47
2022-12-19T01:09:18.402Z,41.20
2022-12-19T01:12:04.341Z,39.63
2022-12-19T01:14:31.082Z,41.15
2022-12-19T01:16:58.025Z,39.78
2022-12-19T01:19:38.949Z,40.97
2022-12-19T01:22:09.180Z,39.38
2022-12-19T01:24:36.272Z,41.17
2022-12-19T01:27:03.048Z,42.17
2022-12-19T01:29:29.757Z,41.97
2022-12-19T01:31:58.103Z,39.55
2022-12-19T01:34:24.806Z,43.60
2022-12-19T01:36:51.511Z,40.55
2022-12-19T01:39:18.198Z,41.38
2022-12-19T01:41:45.024Z,40.35
2022-12-19T01:44:11.711Z,39.22
2022-12-19T01:46:48.948Z,39.53
2022-12-19T01:49:22.392Z,40.40
2022-12-19T01:51:53.668Z,39.67
2022-12-19T01:54:25.787Z,39.67
2022-12-19T01:56:55.839Z,39.70
2022-12-19T01:59:39.114Z,39.70
2022-12-19T02:02:30.465Z,39.88
2022-12-19T02:04:57.227Z,41.90
2022-12-19T02:07:25.904Z,40.53
2022-12-19T02:09:57.644Z,41.45
2022-12-19T02:12:37.886Z,40.80
2022-12-19T02:15:07.273Z,42.00
2022-12-19T02:18:21.516Z,41.40
2022-12-19T02:21:15.659Z,40.78
2022-12-19T02:23:46.284Z,39.15
2022-12-19T02:26:33.003Z,41.40
2022-12-19T02:29:11.371Z,40.42
2022-12-19T02:32:07.915Z,44.08
2022-12-19T02:35:13.029Z,40.22
2022-12-19T02:38:20.215Z,39.30
2022-12-19T02:41:15.654Z,41.97
2022-12-19T02:43:47.524Z,40.65
2022-12-19T02:46:19.413Z,43.75
2022-12-19T02:48:47.077Z,42.92
2022-12-19T02:51:14.044Z,42.60
2022-12-19T02:53:40.985Z,44.08
2022-12-19T02:56:34.341Z,41.78
2022-12-19T02:59:20.332Z,45.88
2022-12-19T03:01:58.444Z,43.05
2022-12-19T03:04:34.944Z,42.70
2022-12-19T03:07:10.541Z,43.70
2022-12-19T03:09:50.721Z,42.40
2022-12-19T03:12:38.570Z,43.70
2022-12-19T03:15:07.417Z,40.78
2022-12-19T03:17:40.940Z,43.10
2022-12-19T03:20:35.036Z,44.67
2022-12-19T03:23:02.388Z,43.13
2022-12-19T03:25:31.021Z,42.45
2022-12-19T03:28:04.787Z,41.72
2022-12-19T03:30:35.072Z,41.22
2022-12-19T03:33:03.064Z,39.55
2022-12-19T03:35:31.797Z,42.33
2022-12-19T03:38:02.138Z,41.45
2022-12-19T03:40:30.338Z,41.15
2022-12-19T03:43:11.994Z,40.35
2022-12-19T03:45:49.053Z,40.30
2022-12-19T03:48:43.999Z,39.92
2022-12-19T03:51:39.602Z,38.63
2022-12-19T03:54:09.117Z,41.45
2022-12-19T03:56:46.552Z,38.85
2022-12-19T03:59:44.804Z,39.53
2022-12-19T04:02:14.672Z,39.38
2022-12-19T04:04:46.065Z,39.25
2022-12-19T04:07:15.013Z,39.67
2022-12-19T04:09:44.896Z,37.88
2022-12-19T04:12:25.652Z,39.40
2022-12-19T04:14:52.640Z,37.25
2022-12-19T04:17:27.222Z,38.53
2022-12-19T04:20:01.822Z,39.05
2022-12-19T04:22:44.648Z,38.97
2022-12-19T04:25:15.744Z,38.13
2022-12-19T04:27:48.292Z,38.63
2022-12-19T04:30:17.714Z,38.25
2022-12-19T04:32:44.909Z,37.72
2022-12-19T04:35:12.159Z,39.63
2022-12-19T04:37:39.323Z,36.63
2022-12-19T04:40:08.414Z,34.47
2022-12-19T04:42:35.292Z,38.75
2022-12-19T04:45:02.189Z,37.90
2022-12-19T04:47:29.805Z,38.15
2022-12-19T04:49:56.518Z,37.25
2022-12-19T04:52:23.281Z,36.92
2022-12-19T04:54:51.093Z,38.22
2022-12-19T04:57:17.792Z,37.92
2022-12-19T04:59:44.468Z,35.88
2022-12-19T05:02:11.216Z,38.50
2022-12-19T05:04:37.986Z,37.85
2022-12-19T05:07:04.723Z,37.55
2022-12-19T05:09:32.615Z,39.58
2022-12-19T05:11:59.391Z,39.50
2022-12-19T05:14:26.418Z,38.50
2022-12-19T05:16:58.918Z,37.67
2022-12-19T05:19:28.415Z,37.58
2022-12-19T05:21:55.714Z,38.15
2022-12-19T05:24:22.833Z,40.08
2022-12-19T05:26:50.171Z,39.08
2022-12-19T05:29:17.482Z,38.03
2022-12-19T05:31:44.306Z,39.10
2022-12-19T05:34:11.232Z,36.28
2022-12-19T05:36:38.073Z,38.65
2022-12-19T05:39:04.888Z,39.67
2022-12-19T05:41:31.737Z,40.40
2022-12-19T05:43:58.590Z,40.22
2022-12-19T05:46:25.930Z,39.28
2022-12-19T05:48:53.619Z,38.83
2022-12-19T05:51:21.130Z,38.90
2022-12-19T05:53:48.383Z,38.42
2022-12-19T05:56:18.047Z,41.20
2022-12-19T05:58:45.732Z,40.08
2022-12-19T06:01:18.395Z,38.85
2022-12-19T06:03:45.629Z,39.67
2022-12-19T06:06:14.986Z,39.10
2022-12-19T06:08:42.161Z,39.25
2022-12-19T06:11:10.201Z,39.60
2022-12-19T06:13:37.873Z,38.78
2022-12-19T06:16:13.628Z,38.92
2022-12-19T06:18:44.732Z,40.22
2022-12-19T06:21:17.510Z,39.85
2022-12-19T06:23:45.333Z,39.28
2022-12-19T06:26:18.576Z,38.58
2022-12-19T06:28:46.449Z,40.63
2022-12-19T06:31:14.683Z,39.45
2022-12-19T06:33:43.003Z,38.67
2022-12-19T06:36:19.888Z,38.83
2022-12-19T06:38:46.696Z,37.78
2022-12-19T06:41:33.305Z,39.08
2022-12-19T06:44:01.322Z,39.20
2022-12-19T06:46:28.797Z,40.65
2022-12-19T06:48:55.544Z,39.58
2022-12-19T06:51:22.700Z,40.88
2022-12-19T06:53:49.860Z,39.08
2022-12-19T06:56:17.462Z,35.50
2022-12-19T06:58:47.037Z,35.97
2022-12-19T07:01:32.538Z,29.58
2022-12-19T07:03:59.602Z,34.35
2022-12-19T07:06:26.428Z,34.72
2022-12-19T07:08:53.950Z,32.72
2022-12-19T07:11:20.692Z,33.78
2022-12-19T07:13:47.367Z,31.80
2022-12-19T07:16:14.327Z,29.52
2022-12-19T07:18:42.187Z,31.80
2022-12-19T07:21:11.396Z,28.73
2022-12-19T07:23:38.755Z,32.83
2022-12-19T07:26:06.023Z,31.10
2022-12-19T07:28:35.041Z,31.42
2022-12-19T07:31:03.508Z,29.75
2022-12-19T07:33:31.643Z,30.27
2022-12-19T07:36:03.962Z,28.52
2022-12-19T07:38:30.784Z,31.03
2022-12-19T07:41:00.754Z,28.58
2022-12-19T07:43:27.643Z,28.77
2022-12-19T07:45:57.393Z,30.38
2022-12-19T07:48:24.652Z,28.42
2022-12-19T07:50:51.501Z,28.73
2022-12-19T07:53:18.346Z,26.88
2022-12-19T07:55:45.263Z,27.05
2022-12-19T07:58:12.077Z,28.88
2022-12-19T08:00:38.828Z,28.17
2022-12-19T08:03:05.644Z,28.33
2022-12-19T08:05:34.883Z,28.75
2022-12-19T08:08:03.915Z,28.70
2022-12-19T08:10:30.991Z,28.38
2022-12-19T08:12:57.794Z,27.98
2022-12-19T08:15:24.951Z,28.05
2022-12-19T08:17:54.426Z,27.35
2022-12-19T08:20:21.522Z,28.48
2022-12-19T08:22:48.274Z,27.83
2022-12-19T08:25:15.167Z,26.80
2022-12-19T08:27:43.076Z,29.20
2022-12-19T08:30:10.418Z,26.52
2022-12-19T08:32:37.119Z,25.88
2022-12-19T08:35:04.065Z,22.98
2022-12-19T08:37:30.796Z,26.98
2022-12-19T08:39:57.701Z,26.02
2022-12-19T08:42:24.459Z,26.05
2022-12-19T08:44:51.173Z,25.50
2022-12-19T08:47:18.031Z,25.10
2022-12-19T08:49:44.821Z,25.65
2022-12-19T08:52:11.534Z,25.50
2022-12-19T08:54:38.565Z,25.67
2022-12-19T08:57:05.297Z,25.55
2022-12-19T08:59:32.376Z,25.15
2022-12-19T09:02:00.761Z,26.00
2022-12-19T09:06:02.141Z,25.00
2022-12-19T09:07:16.184Z,26.42
2022-12-19T09:09:43.765Z,24.92
2022-12-19T09:12:12.004Z,24.75
2022-12-19T09:14:38.786Z,24.58
2022-12-19T09:17:05.584Z,23.83
2022-12-19T09:19:32.819Z,23.60
2022-12-19T09:21:59.585Z,23.50
2022-12-19T09:24:26.485Z,23.58
2022-12-19T09:26:53.586Z,25.00
2022-12-19T09:29:22.096Z,23.30
2022-12-19T09:31:55.354Z,24.90
2022-12-19T09:34:23.999Z,21.70
2022-12-19T09:36:51.596Z,21.90
2022-12-19T09:39:18.638Z,22.52
2022-12-19T09:42:39.360Z,24.30
2022-12-19T09:45:31.573Z,25.77
2022-12-19T09:48:00.811Z,23.33
2022-12-19T09:50:52.431Z,26.90
2022-12-19T09:53:27.932Z,22.42
2022-12-19T09:55:57.843Z,24.80
2022-12-19T09:58:53.803Z,24.05
2022-12-19T10:01:26.528Z,24.50
2022-12-19T10:04:08.996Z,24.08
2022-12-19T10:07:18.209Z,21.02
2022-12-19T10:12:12.742Z,24.65
2022-12-19T10:12:42.765Z,22.48
2022-12-19T10:15:22.096Z,24.55
2022-12-19T10:18:10.756Z,23.63
2022-12-19T10:20:48.998Z,25.38
2022-12-19T10:23:42.365Z,24.45
2022-12-19T10:26:24.647Z,23.98
2022-12-19T10:29:10.346Z,24.25
2022-12-19T10:31:39.583Z,24.55
2022-12-19T10:34:30.173Z,25.17
2022-12-19T10:37:23.073Z,25.38
2022-12-19T10:40:28.312Z,24.80
2022-12-19T10:43:10.516Z,25.83
2022-12-19T10:45:48.274Z,27.58
2022-12-19T10:48:30.822Z,30.30
2022-12-19T10:50:58.666Z,28.98
2022-12-19T10:53:32.253Z,27.52
2022-12-19T10:56:12.277Z,30.58
2022-12-19T10:58:43.667Z,27.70
2022-12-19T11:01:33.392Z,32.38
2022-12-19T11:04:26.787Z,30.10
2022-12-19T11:07:21.422Z,30.00
2022-12-19T11:09:58.173Z,29.98
2022-12-19T11:18:07.859Z,27.13
2022-12-19T11:19:17.625Z,27.23
2022-12-19T11:27:06.570Z,25.05
2022-12-19T11:29:35.298Z,27.45
2022-12-19T11:29:46.979Z,26.60
2022-12-19T11:30:36.674Z,28.25
2022-12-19T11:32:42.664Z,25.73
2022-12-19T11:35:37.288Z,27.50
2022-12-19T11:38:08.513Z,29.08
2022-12-19T11:40:50.220Z,27.75
2022-12-19T11:43:43.849Z,31.60
2022-12-19T11:46:34.725Z,33.65
2022-12-19T11:49:42.449Z,33.00
2022-12-19T11:53:02.501Z,33.08
2022-12-19T11:55:30.504Z,31.98
2022-12-19T11:57:58.461Z,30.33
2022-12-19T12:00:25.715Z,30.92
2022-12-19T12:03:02.453Z,28.30
2022-12-19T12:05:45.306Z,30.42
2022-12-19T12:10:35.254Z,30.25
2022-12-19T12:19:41.797Z,28.13
2022-12-19T12:30:59.200Z,25.95
2022-12-19T12:31:13.483Z,30.42
2022-12-19T12:31:17.978Z,23.75
2022-12-19T12:31:40.085Z,28.25
2022-12-19T12:31:46.927Z,25.65
2022-12-19T12:31:50.065Z,22.05
2022-12-19T12:35:50.920Z,24.48
2022-12-19T12:39:18.211Z,23.83
2022-12-19T12:42:23.903Z,24.98
2022-12-19T12:44:54.880Z,26.40
2022-12-19T12:47:25.776Z,25.77
2022-12-19T12:50:00.738Z,26.02
2022-12-19T12:52:33.893Z,26.58
2022-12-19T12:55:01.530Z,25.83
2022-12-19T12:57:39.819Z,25.70
2022-12-19T13:00:28.207Z,25.45
2022-12-19T13:03:04.730Z,26.15
2022-12-19T13:05:46.803Z,25.98
2022-12-19T13:08:40.150Z,23.55
2022-12-19T13:11:37.242Z,25.55
2022-12-19T13:14:05.070Z,25.25
2022-12-19T13:16:48.809Z,26.73
2022-12-19T13:19:41.107Z,24.60
2022-12-19T13:22:18.148Z,22.88
2022-12-19T13:24:53.542Z,25.75
2022-12-19T13:27:20.272Z,26.27
2022-12-19T13:30:10.519Z,25.15
2022-12-19T13:32:40.361Z,25.27
2022-12-19T13:36:09.346Z,28.40
2022-12-19T13:40:02.472Z,25.25
2022-12-19T13:41:30.250Z,26.00
2022-12-19T13:43:59.811Z,25.02
2022-12-19T13:46:45.847Z,25.75
2022-12-19T13:49:34.432Z,23.00
2022-12-19T13:52:02.302Z,24.52
2022-12-19T13:54:44.855Z,23.92
2022-12-19T13:57:31.253Z,24.67
2022-12-19T14:00:07.154Z,25.98
2022-12-19T14:02:56.560Z,25.67
2022-12-19T14:06:14.751Z,27.05
2022-12-19T14:08:23.705Z,25.52
2022-12-19T14:11:48.023Z,27.25
2022-12-19T14:14:17.718Z,26.98
2022-12-19T14:16:48.666Z,27.23
2022-12-19T14:19:19.640Z,27.63
2022-12-19T14:22:07.371Z,29.90
2022-12-19T14:24:33.095Z,28.33
2022-12-19T14:28:23.522Z,27.55
2022-12-19T14:30:27.237Z,27.83
2022-12-19T14:33:47.103Z,30.33
2022-12-19T14:36:10.440Z,28.63
2022-12-19T14:39:19.430Z,29.70
2022-12-19T14:41:48.005Z,28.95
2022-12-19T14:52:34.220Z,29.33
2022-12-19T14:54:01.915Z,30.35
2022-12-19T14:54:12.043Z,28.08
2022-12-19T14:54:23.528Z,30.63
2022-12-19T14:56:09.323Z,30.92
2022-12-19T14:58:56.251Z,30.13
2022-12-19T15:01:29.972Z,30.92
2022-12-19T15:04:48.887Z,28.13
2022-12-19T15:07:08.389Z,29.17
2022-12-19T15:11:03.597Z,29.38
2022-12-19T15:14:52.223Z,31.15
2022-12-19T15:16:07.575Z,32.45
2022-12-19T15:18:41.198Z,29.70
2022-12-19T15:23:37.016Z,27.33
2022-12-19T15:26:11.035Z,30.77
2022-12-19T15:28:52.585Z,30.70
2022-12-19T15:31:36.061Z,29.25
2022-12-19T15:34:34.774Z,30.85
2022-12-19T15:37:02.860Z,31.83
2022-12-19T15:39:30.372Z,27.70
2022-12-19T15:41:59.475Z,32.40
2022-12-19T15:44:39.759Z,29.27
2022-12-19T15:47:14.877Z,28.63
2022-12-19T15:49:41.797Z,30.83
2022-12-19T15:52:20.569Z,27.08
2022-12-19T15:54:50.306Z,30.30
2022-12-19T15:57:36.263Z,29.98
2022-12-19T16:00:16.213Z,28.95
2022-12-19T16:03:21.122Z,29.23
2022-12-19T16:05:30.146Z,28.98
2022-12-19T16:07:58.813Z,29.48
2022-12-19T16:10:27.258Z,28.92
2022-12-19T16:12:56.744Z,27.75
2022-12-19T16:15:26.733Z,29.25
2022-12-19T16:17:54.507Z,26.92
2022-12-19T16:20:32.912Z,27.92
2022-12-19T16:22:59.757Z,28.73
2022-12-19T16:25:51.381Z,28.73
2022-12-19T16:28:29.546Z,28.08
2022-12-19T16:30:58.075Z,29.33
2022-12-19T16:33:30.127Z,26.60
2022-12-19T16:36:06.686Z,27.38
2022-12-19T16:38:34.207Z,28.27
2022-12-19T16:41:01.845Z,28.10
2022-12-19T16:43:38.369Z,27.92
2022-12-19T16:46:07.363Z,27.45
2022-12-19T16:48:36.096Z,29.50
2022-12-19T16:51:03.363Z,27.42
2022-12-19T16:53:30.448Z,27.48
2022-12-19T16:56:00.903Z,28.42
2022-12-19T16:58:29.546Z,27.60
2022-12-19T17:00:56.916Z,27.08
2022-12-19T17:03:29.267Z,26.48
2022-12-19T17:05:56.554Z,22.77
2022-12-19T17:08:23.846Z,26.20
2022-12-19T17:10:52.431Z,25.38
2022-12-19T17:13:19.673Z,25.92
2022-12-19T17:15:52.583Z,26.02
2022-12-19T17:18:34.957Z,27.33
2022-12-19T17:21:01.890Z,28.15
2022-12-19T17:23:31.107Z,27.88
2022-12-19T17:25:59.477Z,26.48
2022-12-19T17:28:29.159Z,27.08
2022-12-19T17:31:00.246Z,27.60
2022-12-19T17:33:40.955Z,28.77
2022-12-19T17:36:10.973Z,28.13
2022-12-19T17:38:37.718Z,26.27
2022-12-19T17:41:04.650Z,28.25
2022-12-19T17:43:31.496Z,28.33
2022-12-19T17:46:00.164Z,26.65
2022-12-19T17:48:32.255Z,27.45
2022-12-19T17:50:59.985Z,27.02
2022-12-19T17:53:27.235Z,29.48
2022-12-19T17:55:54.044Z,27.45
2022-12-19T17:58:22.054Z,27.58
2022-12-19T18:00:49.985Z,27.45
2022-12-19T18:03:38.636Z,27.50
2022-12-19T18:06:11.792Z,27.45
2022-12-19T18:11:21.184Z,26.75
2022-12-19T18:13:48.449Z,27.48
2022-12-19T18:16:18.816Z,30.30
2022-12-19T18:18:46.063Z,30.67
2022-12-19T18:21:20.258Z,31.20
2022-12-19T18:23:47.017Z,32.97
2022-12-19T18:26:14.467Z,32.95
2022-12-19T18:28:41.881Z,33.05
2022-12-19T18:31:20.359Z,32.78
2022-12-19T18:33:48.549Z,31.70
2022-12-19T18:36:22.972Z,27.42
2022-12-19T18:38:50.454Z,27.30
2022-12-19T18:41:18.769Z,31.05
2022-12-19T18:43:45.944Z,30.27
2022-12-19T18:46:19.411Z,30.17
2022-12-19T18:48:46.703Z,28.23
2022-12-19T18:51:16.798Z,32.70
2022-12-19T18:53:45.748Z,32.95
2022-12-19T18:56:12.799Z,33.85
2022-12-19T18:58:40.057Z,28.75
2022-12-19T19:01:12.876Z,28.30
2022-12-19T19:03:41.043Z,30.30
2022-12-19T19:06:18.628Z,31.13
2022-12-19T19:08:45.748Z,32.47
2022-12-19T19:11:36.555Z,30.33
2022-12-19T19:14:03.315Z,30.15
2022-12-19T19:16:30.425Z,31.27
2022-12-19T19:18:58.868Z,33.20
2022-12-19T19:21:32.109Z,32.42
2022-12-19T19:24:00.916Z,31.63
2022-12-19T19:26:29.059Z,36.80
2022-12-19T19:28:55.868Z,32.22
2022-12-19T19:31:24.737Z,32.42
2022-12-19T19:33:58.074Z,33.90
2022-12-19T19:36:28.323Z,34.33
2022-12-19T19:38:56.269Z,35.38
2022-12-19T19:41:29.350Z,35.10
2022-12-19T19:44:00.284Z,35.42
2022-12-19T19:46:30.233Z,32.83
2022-12-19T19:48:58.369Z,36.97
2022-12-19T19:51:25.378Z,37.67
2022-12-19T19:53:52.464Z,38.05
2022-12-19T19:56:19.556Z,38.78
2022-12-19T19:58:46.328Z,37.03
2022-12-19T20:01:14.358Z,40.13
2022-12-19T20:03:45.213Z,32.95
2022-12-19T20:06:12.302Z,33.63
2022-12-19T20:08:40.449Z,36.90
2022-12-19T20:11:08.852Z,30.13
2022-12-19T20:13:36.391Z,29.17
2022-12-19T20:16:10.648Z,33.55
2022-12-19T20:18:39.227Z,33.13
2022-12-19T20:21:13.548Z,32.83
2022-12-19T20:23:44.492Z,35.03
2022-12-19T20:26:13.206Z,34.40
2022-12-19T20:28:49.505Z,35.70
2022-12-19T20:31:24.235Z,33.20
2022-12-19T20:33:53.633Z,31.80
2022-12-19T20:36:20.794Z,32.05
2022-12-19T20:38:48.224Z,33.10
2022-12-19T20:42:40.786Z,34.35
2022-12-19T20:47:42.885Z,30.13
2022-12-19T20:50:12.194Z,26.83
2022-12-19T20:52:41.217Z,26.58
2022-12-19T20:57:52.925Z,31.50
2022-12-19T21:03:29.734Z,30.48
2022-12-19T21:05:57.204Z,28.33
2022-12-19T21:08:28.017Z,29.48
2022-12-19T21:11:14.082Z,31.60
2022-12-19T21:14:10.656Z,28.60
2022-12-19T21:16:37.684Z,29.08
2022-12-19T21:19:05.169Z,27.88
2022-12-19T21:21:31.906Z,28.73
2022-12-19T21:24:00.478Z,26.48
2022-12-19T21:26:30.641Z,28.45
2022-12-19T21:29:00.235Z,29.23
2022-12-19T21:31:30.009Z,33.20
2022-12-19T21:33:59.648Z,31.73
2022-12-19T21:36:28.222Z,32.03
2022-12-19T21:38:57.732Z,32.08
2022-12-19T21:42:15.434Z,32.78
2022-12-19T21:44:14.915Z,32.05
2022-12-19T21:46:41.677Z,29.48
2022-12-19T21:49:09.659Z,33.25
2022-12-19T21:52:00.122Z,32.53
2022-12-19T21:54:26.934Z,35.65
2022-12-19T21:56:59.921Z,30.00
2022-12-19T21:59:26.713Z,31.95
2022-12-19T22:01:56.201Z,33.88
2022-12-19T22:04:26.678Z,30.08
2022-12-19T22:07:01.398Z,36.58
2022-12-19T22:09:33.113Z,34.13
2022-12-19T22:11:59.908Z,36.28
2022-12-19T22:14:26.904Z,32.45
2022-12-19T22:16:53.904Z,30.90
2022-12-19T22:19:20.704Z,33.42
2022-12-19T22:21:47.929Z,33.10
2022-12-19T22:24:16.598Z,34.33
2022-12-19T22:26:43.775Z,35.03
2022-12-19T22:29:17.100Z,39.25
2022-12-19T22:31:44.818Z,35.38
2022-12-19T22:34:14.571Z,35.75
2022-12-19T22:36:42.845Z,37.50
2022-12-19T22:39:12.967Z,32.50
2022-12-19T22:41:41.172Z,34.75
2022-12-19T22:44:14.684Z,36.53
2022-12-19T22:46:41.444Z,37.35
2022-12-19T22:49:10.832Z,39.47
2022-12-19T22:51:38.140Z,36.17
2022-12-19T22:54:05.789Z,36.33
2022-12-19T22:56:33.831Z,37.17
2022-12-19T22:59:04.710Z,36.17
2022-12-19T23:01:34.547Z,35.17
2022-12-19T23:04:04.418Z,37.60
2022-12-19T23:06:33.785Z,35.35
2022-12-19T23:09:01.138Z,34.63
2022-12-19T23:11:34.756Z,34.63
2022-12-19T23:16:29.814Z,33.47
2022-12-19T23:18:56.609Z,35.67
2022-12-19T23:21:24.781Z,33.55
2022-12-19T23:23:52.953Z,34.60
2022-12-19T23:26:25.483Z,35.67
2022-12-19T23:29:07.481Z,34.00
2022-12-19T23:31:35.254Z,34.33
2022-12-19T23:34:05.420Z,34.47
2022-12-19T23:37:09.074Z,35.63
2022-12-19T23:39:18.993Z,33.42
2022-12-19T23:41:45.753Z,33.60
2022-12-19T23:44:14.801Z,33.67
2022-12-19T23:46:41.841Z,33.28
2022-12-19T23:49:08.546Z,35.20
2022-12-19T23:51:35.226Z,36.67
2022-12-19T23:54:01.957Z,36.70
2022-12-19T23:56:31.500Z,36.72
2022-12-19T23:58:59.048Z,40.13
